DLH422 EDDF-KEWR
Flight info
| Callsign | DLH422 |
|---|---|
| Flight time | N/A |
| Altitude | 38000 |
| Route | OBOKA5G OBOKA Z29 TORNU DCT VICOT DCT GALSO Q63 ERING L179 UGBET Q60 OKSAW DCT BIBPE DCT TIGWE DCT FELCA DCT FADZU DCT NICXI DCT OFSOX DCT SLANY DCT DIMUS DCT MALOT/M082F390 DCT 54N020W 54N030W 54N040W 53N050W DCT RIKAL/N0480F400 N576B ANATI DCT IMORI DCT HANAA FLOSI4 |
| Aircraft | A346/H-SDE2E3FGHIJ3J4J5M1P2RWXYZ/LB1D1 |
Departure
| Time | 2026-05-04 22:44 |
|---|---|
| Airport | Frankfurt Main Airport (EDDF) |
Arrival
| Time | N/A |
|---|---|
| Airport | Newark Liberty International Airport (KEWR) |
| Time | Latitude | Longitude | Altitude | Speed | Heading |
|---|---|---|---|---|---|
| 2026-05-04 22:12 | 50.04795 | 8.56592 | 364 ft | 0 kts | 340° |
| 2026-05-04 22:13 | 50.04799 | 8.56589 | 364 ft | 0 kts | 340° |
| 2026-05-04 22:28 | 50.04781 | 8.56600 | 371 ft | 4 kts | 340° |
| 2026-05-04 22:28 | 50.04760 | 8.56613 | 369 ft | 4 kts | 342° |
| 2026-05-04 22:28 | 50.04742 | 8.56616 | 370 ft | 4 kts | 19° |
| 2026-05-04 22:28 | 50.04727 | 8.56598 | 368 ft | 4 kts | 51° |
| 2026-05-04 22:29 | 50.04711 | 8.56567 | 366 ft | 4 kts | 53° |
| 2026-05-04 22:29 | 50.04696 | 8.56532 | 368 ft | 4 kts | 58° |
| 2026-05-04 22:29 | 50.04683 | 8.56496 | 368 ft | 4 kts | 64° |
| 2026-05-04 22:29 | 50.04672 | 8.56458 | 368 ft | 4 kts | 69° |
| 2026-05-04 22:30 | 50.04667 | 8.56434 | 368 ft | 0 kts | 71° |
| 2026-05-04 22:30 | 50.04671 | 8.56465 | 371 ft | 4 kts | 90° |
| 2026-05-04 22:30 | 50.04663 | 8.56490 | 369 ft | 4 kts | 128° |
| 2026-05-04 22:30 | 50.04647 | 8.56509 | 369 ft | 4 kts | 156° |
| 2026-05-04 22:31 | 50.04630 | 8.56508 | 367 ft | 4 kts | 194° |
| 2026-05-04 22:31 | 50.04609 | 8.56491 | 370 ft | 2 kts | 214° |
| 2026-05-04 22:31 | 50.04595 | 8.56471 | 370 ft | 4 kts | 227° |
| 2026-05-04 22:31 | 50.04597 | 8.56474 | 371 ft | 0 kts | 205° |
| 2026-05-04 22:33 | 50.04594 | 8.56472 | 371 ft | 1 kts | 205° |
| 2026-05-04 22:33 | 50.04586 | 8.56466 | 371 ft | 1 kts | 205° |
| 2026-05-04 22:34 | 50.04567 | 8.56452 | 371 ft | 5 kts | 205° |
| 2026-05-04 22:34 | 50.04529 | 8.56417 | 371 ft | 8 kts | 228° |
| 2026-05-04 22:34 | 50.04503 | 8.56328 | 369 ft | 11 kts | 250° |
| 2026-05-04 22:34 | 50.04474 | 8.56205 | 368 ft | 13 kts | 250° |
| 2026-05-04 22:35 | 50.04445 | 8.56084 | 371 ft | 10 kts | 250° |
| 2026-05-04 22:35 | 50.04404 | 8.56023 | 371 ft | 9 kts | 175° |
| 2026-05-04 22:35 | 50.04352 | 8.56051 | 368 ft | 7 kts | 159° |
| 2026-05-04 22:35 | 50.04299 | 8.56096 | 370 ft | 10 kts | 119° |
| 2026-05-04 22:36 | 50.04294 | 8.56170 | 369 ft | 5 kts | 93° |
| 2026-05-04 22:36 | 50.04270 | 8.56222 | 366 ft | 8 kts | 148° |
| 2026-05-04 22:36 | 50.04213 | 8.56256 | 364 ft | 4 kts | 160° |
| 2026-05-04 22:36 | 50.04180 | 8.56275 | 366 ft | 7 kts | 160° |
| 2026-05-04 22:37 | 50.04144 | 8.56310 | 368 ft | 6 kts | 118° |
| 2026-05-04 22:37 | 50.04153 | 8.56388 | 366 ft | 9 kts | 69° |
| 2026-05-04 22:37 | 50.04176 | 8.56484 | 367 ft | 10 kts | 69° |
| 2026-05-04 22:37 | 50.04202 | 8.56594 | 366 ft | 12 kts | 70° |
| 2026-05-04 22:38 | 50.04231 | 8.56716 | 368 ft | 12 kts | 70° |
| 2026-05-04 22:38 | 50.04263 | 8.56847 | 372 ft | 13 kts | 70° |
| 2026-05-04 22:38 | 50.04296 | 8.56989 | 373 ft | 15 kts | 70° |
| 2026-05-04 22:38 | 50.04333 | 8.57145 | 371 ft | 16 kts | 70° |
| 2026-05-04 22:39 | 50.04375 | 8.57317 | 372 ft | 18 kts | 69° |
| 2026-05-04 22:39 | 50.04396 | 8.57407 | 374 ft | 0 kts | 69° |
| 2026-05-04 22:39 | 50.04402 | 8.57428 | 374 ft | 4 kts | 69° |
| 2026-05-04 22:39 | 50.04416 | 8.57490 | 371 ft | 8 kts | 69° |
| 2026-05-04 22:40 | 50.04437 | 8.57577 | 375 ft | 9 kts | 70° |
| 2026-05-04 22:40 | 50.04462 | 8.57684 | 376 ft | 12 kts | 69° |
| 2026-05-04 22:40 | 50.04497 | 8.57827 | 374 ft | 15 kts | 69° |
| 2026-05-04 22:40 | 50.04537 | 8.57995 | 375 ft | 18 kts | 70° |
| 2026-05-04 22:41 | 50.04584 | 8.58194 | 377 ft | 20 kts | 70° |
| 2026-05-04 22:41 | 50.04632 | 8.58393 | 379 ft | 17 kts | 69° |
| 2026-05-04 22:41 | 50.04654 | 8.58488 | 380 ft | 8 kts | 69° |
| 2026-05-04 22:41 | 50.04656 | 8.58533 | 381 ft | 4 kts | 120° |
| 2026-05-04 22:42 | 50.04628 | 8.58567 | 377 ft | 7 kts | 153° |
| 2026-05-04 22:42 | 50.04575 | 8.58599 | 382 ft | 9 kts | 159° |
| 2026-05-04 22:42 | 50.04524 | 8.58629 | 382 ft | 6 kts | 164° |
| 2026-05-04 22:42 | 50.04490 | 8.58606 | 384 ft | 6 kts | 244° |
| 2026-05-04 22:43 | 50.04483 | 8.58578 | 379 ft | 0 kts | 250° |
| 2026-05-04 22:43 | 50.04474 | 8.58536 | 379 ft | 17 kts | 250° |
| 2026-05-04 22:43 | 50.04349 | 8.58010 | 376 ft | 86 kts | 249° |
| 2026-05-04 22:43 | 50.04067 | 8.56828 | 369 ft | 145 kts | 250° |
| 2026-05-04 22:44 | 50.03657 | 8.55121 | 358 ft | 193 kts | 249° |
| 2026-05-04 22:44 | 50.03156 | 8.53065 | 886 ft | 198 kts | 249° |
| 2026-05-04 22:44 | 50.02696 | 8.51079 | 1734 ft | 192 kts | 258° |
| 2026-05-04 22:44 | 50.02646 | 8.49053 | 2474 ft | 192 kts | 275° |
| 2026-05-04 22:45 | 50.02819 | 8.46942 | 2941 ft | 201 kts | 278° |
| 2026-05-04 22:45 | 50.02805 | 8.42377 | 3825 ft | 225 kts | 258° |
| 2026-05-04 22:45 | 50.02470 | 8.39905 | 4182 ft | 243 kts | 257° |
| 2026-05-04 22:46 | 50.02128 | 8.37208 | 4531 ft | 262 kts | 258° |
| 2026-05-04 22:46 | 50.01793 | 8.34348 | 5131 ft | 272 kts | 258° |
| 2026-05-04 22:46 | 50.01471 | 8.31432 | 5989 ft | 273 kts | 258° |
| 2026-05-04 22:46 | 50.01312 | 8.28502 | 6928 ft | 272 kts | 273° |
| 2026-05-04 22:47 | 50.01807 | 8.25680 | 7924 ft | 271 kts | 290° |
| 2026-05-04 22:47 | 50.02625 | 8.23002 | 8704 ft | 278 kts | 292° |
| 2026-05-04 22:47 | 50.03481 | 8.20257 | 9446 ft | 284 kts | 292° |
| 2026-05-04 22:47 | 50.04326 | 8.17444 | 10217 ft | 289 kts | 291° |
| 2026-05-04 22:48 | 50.05163 | 8.14538 | 10763 ft | 302 kts | 292° |
| 2026-05-04 22:48 | 50.05842 | 8.12546 | 11010 ft | 315 kts | 297° |
| 2026-05-04 22:48 | 50.07094 | 8.09617 | 11361 ft | 335 kts | 304° |
| 2026-05-04 22:48 | 50.08553 | 8.06717 | 11702 ft | 353 kts | 306° |
| 2026-05-04 22:49 | 50.10139 | 8.03661 | 12058 ft | 370 kts | 306° |
| 2026-05-04 22:49 | 50.11778 | 8.00514 | 12698 ft | 377 kts | 306° |
| 2026-05-04 22:49 | 50.13431 | 7.97328 | 13457 ft | 380 kts | 306° |
| 2026-05-04 22:49 | 50.15101 | 7.94092 | 14148 ft | 385 kts | 306° |
| 2026-05-04 22:50 | 50.16788 | 7.90814 | 14826 ft | 389 kts | 306° |
| 2026-05-04 22:50 | 50.18485 | 7.87504 | 15582 ft | 391 kts | 305° |
| 2026-05-04 22:50 | 50.20194 | 7.84162 | 16319 ft | 394 kts | 305° |
| 2026-05-04 22:50 | 50.21915 | 7.80790 | 17071 ft | 397 kts | 305° |
| 2026-05-04 22:51 | 50.23663 | 7.77410 | 17739 ft | 404 kts | 308° |
| 2026-05-04 22:51 | 50.25730 | 7.74363 | 18370 ft | 412 kts | 319° |
| 2026-05-04 22:51 | 50.28161 | 7.71916 | 18958 ft | 420 kts | 330° |
| 2026-05-04 22:51 | 50.30826 | 7.69989 | 19574 ft | 424 kts | 334° |
| 2026-05-04 22:52 | 50.33553 | 7.68178 | 20175 ft | 428 kts | 335° |
| 2026-05-04 22:52 | 50.36305 | 7.66352 | 20761 ft | 431 kts | 334° |
| 2026-05-04 22:52 | 50.39073 | 7.64483 | 21361 ft | 435 kts | 334° |
| 2026-05-04 22:52 | 50.41866 | 7.62575 | 21925 ft | 439 kts | 334° |
| 2026-05-04 22:53 | 50.44675 | 7.60643 | 22480 ft | 443 kts | 333° |
| 2026-05-04 22:53 | 50.47511 | 7.58687 | 23056 ft | 447 kts | 333° |
| 2026-05-04 22:53 | 50.50367 | 7.56714 | 23627 ft | 450 kts | 333° |
| 2026-05-04 22:53 | 50.53236 | 7.54694 | 24085 ft | 453 kts | 332° |
| 2026-05-04 22:54 | 50.56061 | 7.52434 | 24546 ft | 455 kts | 328° |
| 2026-05-04 22:54 | 50.58797 | 7.49912 | 24996 ft | 457 kts | 324° |
| 2026-05-04 22:54 | 50.61483 | 7.47207 | 25449 ft | 459 kts | 323° |
| 2026-05-04 22:54 | 50.64164 | 7.44447 | 25857 ft | 463 kts | 322° |
| 2026-05-04 22:55 | 50.66836 | 7.41683 | 26221 ft | 467 kts | 322° |
| 2026-05-04 22:55 | 50.69571 | 7.38856 | 26686 ft | 470 kts | 322° |
| 2026-05-04 22:55 | 50.72225 | 7.35858 | 27123 ft | 469 kts | 315° |
| 2026-05-04 22:55 | 50.74520 | 7.32231 | 27586 ft | 464 kts | 304° |
| 2026-05-04 22:56 | 50.76394 | 7.28028 | 28038 ft | 460 kts | 295° |
| 2026-05-04 22:56 | 50.77887 | 7.23628 | 28502 ft | 460 kts | 291° |
| 2026-05-04 22:56 | 50.79335 | 7.19105 | 28958 ft | 462 kts | 291° |
| 2026-05-04 22:56 | 50.80784 | 7.14545 | 29433 ft | 464 kts | 291° |
| 2026-05-04 22:57 | 50.82242 | 7.09988 | 30067 ft | 463 kts | 291° |
| 2026-05-04 22:57 | 50.83699 | 7.05462 | 30676 ft | 459 kts | 291° |
| 2026-05-04 22:57 | 50.85149 | 7.00964 | 31280 ft | 457 kts | 291° |
| 2026-05-04 22:57 | 50.86594 | 6.96486 | 31797 ft | 456 kts | 291° |
| 2026-05-04 22:58 | 50.88036 | 6.92013 | 32340 ft | 455 kts | 291° |
| 2026-05-04 22:58 | 50.89469 | 6.87557 | 32900 ft | 452 kts | 291° |
| 2026-05-04 22:58 | 50.90895 | 6.83118 | 33478 ft | 450 kts | 291° |
| 2026-05-04 22:58 | 50.92307 | 6.78712 | 34014 ft | 448 kts | 291° |
| 2026-05-04 22:59 | 50.93714 | 6.74312 | 34462 ft | 446 kts | 291° |
| 2026-05-04 22:59 | 50.95115 | 6.69920 | 34843 ft | 446 kts | 291° |
| 2026-05-04 22:59 | 50.96516 | 6.65517 | 35180 ft | 446 kts | 291° |
| 2026-05-04 22:59 | 50.97916 | 6.61117 | 35531 ft | 447 kts | 292° |
| 2026-05-04 23:00 | 50.99317 | 6.56698 | 35816 ft | 448 kts | 292° |
| 2026-05-04 23:00 | 51.00718 | 6.52280 | 36071 ft | 449 kts | 292° |
| 2026-05-04 23:00 | 51.02127 | 6.47829 | 36352 ft | 451 kts | 292° |
| 2026-05-04 23:00 | 51.03538 | 6.43369 | 36615 ft | 452 kts | 292° |
| 2026-05-04 23:01 | 51.04951 | 6.38892 | 36856 ft | 454 kts | 292° |
| 2026-05-04 23:01 | 51.06367 | 6.34395 | 37085 ft | 455 kts | 292° |
| 2026-05-04 23:01 | 51.07786 | 6.29885 | 37310 ft | 457 kts | 292° |